sensor_id;sensor_type;location;lat;lon;timestamp;P1;durP1;ratioP1;P2;durP2;ratioP2
34471;SDS011;20710;49.976;19.836;2022-08-01T00:04:58;12.00;;;8.13;;
34471;SDS011;20710;49.976;19.836;2022-08-01T00:10:56;13.83;;;7.95;;
34471;SDS011;20710;49.976;19.836;2022-08-01T00:17:09;12.85;;;7.78;;
34471;SDS011;20710;49.976;19.836;2022-08-01T00:29:31;8.65;;;7.17;;
34471;SDS011;20710;49.976;19.836;2022-08-01T00:35:33;10.75;;;7.83;;
34471;SDS011;20710;49.976;19.836;2022-08-01T00:47:49;14.40;;;7.15;;
34471;SDS011;20710;49.976;19.836;2022-08-01T00:53:50;11.38;;;7.45;;
34471;SDS011;20710;49.976;19.836;2022-08-01T00:59:52;13.65;;;9.50;;
34471;SDS011;20710;49.976;19.836;2022-08-01T01:38:45;11.40;;;8.13;;
34471;SDS011;20710;49.976;19.836;2022-08-01T01:51:12;13.00;;;8.78;;
34471;SDS011;20710;49.976;19.836;2022-08-01T01:57:16;8.63;;;7.33;;
34471;SDS011;20710;49.976;19.836;2022-08-01T02:03:29;10.40;;;7.55;;
34471;SDS011;20710;49.976;19.836;2022-08-01T02:09:47;10.65;;;7.70;;
34471;SDS011;20710;49.976;19.836;2022-08-01T02:15:49;11.15;;;7.25;;
34471;SDS011;20710;49.976;19.836;2022-08-01T02:28:15;10.35;;;7.40;;
34471;SDS011;20710;49.976;19.836;2022-08-01T02:40:55;12.95;;;6.58;;
34471;SDS011;20710;49.976;19.836;2022-08-01T02:47:01;9.20;;;6.80;;
34471;SDS011;20710;49.976;19.836;2022-08-01T02:53:22;14.35;;;7.03;;
34471;SDS011;20710;49.976;19.836;2022-08-01T03:05:43;11.60;;;8.68;;
34471;SDS011;20710;49.976;19.836;2022-08-01T03:11:53;14.80;;;8.93;;
34471;SDS011;20710;49.976;19.836;2022-08-01T03:18:05;11.68;;;9.25;;
34471;SDS011;20710;49.976;19.836;2022-08-01T03:24:10;13.75;;;9.60;;
34471;SDS011;20710;49.976;19.836;2022-08-01T03:30:27;10.95;;;8.48;;
34471;SDS011;20710;49.976;19.836;2022-08-01T03:36:48;11.35;;;10.03;;
34471;SDS011;20710;49.976;19.836;2022-08-01T03:42:58;13.58;;;10.53;;
34471;SDS011;20710;49.976;19.836;2022-08-01T03:49:04;17.20;;;11.63;;
34471;SDS011;20710;49.976;19.836;2022-08-01T04:07:54;18.00;;;13.43;;
34471;SDS011;20710;49.976;19.836;2022-08-01T04:13:59;21.68;;;15.40;;
34471;SDS011;20710;49.976;19.836;2022-08-01T04:26:10;61.18;;;53.02;;
34471;SDS011;20710;49.976;19.836;2022-08-01T04:32:40;38.35;;;30.32;;
34471;SDS011;20710;49.976;19.836;2022-08-01T04:38:46;28.15;;;23.60;;
34471;SDS011;20710;49.976;19.836;2022-08-01T04:44:52;23.50;;;20.15;;
34471;SDS011;20710;49.976;19.836;2022-08-01T04:50:54;21.82;;;14.35;;
34471;SDS011;20710;49.976;19.836;2022-08-01T04:56:55;20.55;;;15.08;;
34471;SDS011;20710;49.976;19.836;2022-08-01T05:03:00;19.73;;;15.10;;
34471;SDS011;20710;49.976;19.836;2022-08-01T05:09:01;21.48;;;16.42;;
34471;SDS011;20710;49.976;19.836;2022-08-01T05:15:03;21.17;;;14.20;;
34471;SDS011;20710;49.976;19.836;2022-08-01T05:21:07;18.25;;;13.45;;
34471;SDS011;20710;49.976;19.836;2022-08-01T05:27:08;17.70;;;12.68;;
34471;SDS011;20710;49.976;19.836;2022-08-01T05:33:09;13.45;;;11.60;;
34471;SDS011;20710;49.976;19.836;2022-08-01T05:39:16;18.95;;;14.00;;
34471;SDS011;20710;49.976;19.836;2022-08-01T05:45:18;18.42;;;13.10;;
34471;SDS011;20710;49.976;19.836;2022-08-01T05:51:40;21.35;;;13.78;;
34471;SDS011;20710;49.976;19.836;2022-08-01T06:04:06;29.60;;;17.07;;
34471;SDS011;20710;49.976;19.836;2022-08-01T06:10:07;23.47;;;17.10;;
34471;SDS011;20710;49.976;19.836;2022-08-01T06:16:09;22.58;;;15.75;;
34471;SDS011;20710;49.976;19.836;2022-08-01T06:22:10;15.35;;;9.55;;
34471;SDS011;20710;49.976;19.836;2022-08-01T06:28:12;12.23;;;7.80;;
34471;SDS011;20710;49.976;19.836;2022-08-01T06:34:28;9.15;;;6.45;;
34471;SDS011;20710;49.976;19.836;2022-08-01T06:46:41;5.97;;;5.33;;
34471;SDS011;20710;49.976;19.836;2022-08-01T06:52:45;5.97;;;5.03;;
34471;SDS011;20710;49.976;19.836;2022-08-01T06:58:47;9.38;;;5.40;;
34471;SDS011;20710;49.976;19.836;2022-08-01T07:04:49;7.87;;;4.83;;
34471;SDS011;20710;49.976;19.836;2022-08-01T07:10:50;7.78;;;4.58;;
34471;SDS011;20710;49.976;19.836;2022-08-01T07:16:52;8.13;;;5.20;;
34471;SDS011;20710;49.976;19.836;2022-08-01T07:22:53;7.15;;;4.60;;
34471;SDS011;20710;49.976;19.836;2022-08-01T07:28:55;6.45;;;3.90;;
34471;SDS011;20710;49.976;19.836;2022-08-01T07:35:07;6.45;;;3.50;;
34471;SDS011;20710;49.976;19.836;2022-08-01T07:41:29;4.70;;;3.00;;
34471;SDS011;20710;49.976;19.836;2022-08-01T07:47:43;4.80;;;3.27;;
34471;SDS011;20710;49.976;19.836;2022-08-01T07:53:44;3.90;;;2.83;;
34471;SDS011;20710;49.976;19.836;2022-08-01T07:59:46;5.15;;;2.72;;
34471;SDS011;20710;49.976;19.836;2022-08-01T08:05:47;4.72;;;2.50;;
34471;SDS011;20710;49.976;19.836;2022-08-01T08:11:50;5.70;;;2.70;;
34471;SDS011;20710;49.976;19.836;2022-08-01T08:17:51;4.83;;;2.50;;
34471;SDS011;20710;49.976;19.836;2022-08-01T08:23:52;5.05;;;2.67;;
34471;SDS011;20710;49.976;19.836;2022-08-01T08:30:14;3.75;;;1.60;;
34471;SDS011;20710;49.976;19.836;2022-08-01T08:36:15;3.92;;;2.27;;
34471;SDS011;20710;49.976;19.836;2022-08-01T08:42:16;4.28;;;1.70;;
34471;SDS011;20710;49.976;19.836;2022-08-01T08:48:19;4.33;;;2.20;;
34471;SDS011;20710;49.976;19.836;2022-08-01T08:54:22;2.30;;;1.62;;
34471;SDS011;20710;49.976;19.836;2022-08-01T09:00:24;1.80;;;1.40;;
34471;SDS011;20710;49.976;19.836;2022-08-01T09:06:26;4.17;;;1.20;;
34471;SDS011;20710;49.976;19.836;2022-08-01T09:12:29;2.47;;;1.32;;
34471;SDS011;20710;49.976;19.836;2022-08-01T09:25:06;2.72;;;1.10;;
34471;SDS011;20710;49.976;19.836;2022-08-01T09:31:06;3.27;;;1.20;;
34471;SDS011;20710;49.976;19.836;2022-08-01T09:37:30;2.83;;;1.32;;
34471;SDS011;20710;49.976;19.836;2022-08-01T09:43:27;1.85;;;1.17;;
34471;SDS011;20710;49.976;19.836;2022-08-01T09:49:31;2.58;;;1.70;;
34471;SDS011;20710;49.976;19.836;2022-08-01T09:55:40;2.08;;;1.30;;
34471;SDS011;20710;49.976;19.836;2022-08-01T10:07:56;1.82;;;1.00;;
34471;SDS011;20710;49.976;19.836;2022-08-01T10:14:05;7.00;;;1.80;;
34471;SDS011;20710;49.976;19.836;2022-08-01T10:20:08;4.17;;;1.50;;
34471;SDS011;20710;49.976;19.836;2022-08-01T10:26:10;3.10;;;1.77;;
34471;SDS011;20710;49.976;19.836;2022-08-01T10:32:14;1.82;;;1.37;;
34471;SDS011;20710;49.976;19.836;2022-08-01T10:38:18;2.40;;;1.40;;
34471;SDS011;20710;49.976;19.836;2022-08-01T10:44:19;3.55;;;1.37;;
34471;SDS011;20710;49.976;19.836;2022-08-01T10:50:27;4.42;;;1.50;;
34471;SDS011;20710;49.976;19.836;2022-08-01T10:56:44;3.42;;;1.50;;
34471;SDS011;20710;49.976;19.836;2022-08-01T11:02:59;2.80;;;1.30;;
34471;SDS011;20710;49.976;19.836;2022-08-01T11:09:05;3.08;;;1.47;;
34471;SDS011;20710;49.976;19.836;2022-08-01T11:15:19;1.90;;;1.30;;
34471;SDS011;20710;49.976;19.836;2022-08-01T11:22:03;1.47;;;1.27;;
34471;SDS011;20710;49.976;19.836;2022-08-01T11:34:51;4.92;;;1.30;;
34471;SDS011;20710;49.976;19.836;2022-08-01T11:47:42;3.20;;;1.10;;
34471;SDS011;20710;49.976;19.836;2022-08-01T11:53:50;1.72;;;1.20;;
34471;SDS011;20710;49.976;19.836;2022-08-01T11:59:53;3.75;;;1.27;;
34471;SDS011;20710;49.976;19.836;2022-08-01T12:05:56;4.50;;;1.60;;
34471;SDS011;20710;49.976;19.836;2022-08-01T12:11:58;4.45;;;1.30;;
34471;SDS011;20710;49.976;19.836;2022-08-01T12:18:01;2.47;;;1.42;;
34471;SDS011;20710;49.976;19.836;2022-08-01T12:24:05;3.67;;;1.50;;
34471;SDS011;20710;49.976;19.836;2022-08-01T12:30:07;2.27;;;1.60;;
34471;SDS011;20710;49.976;19.836;2022-08-01T12:36:13;2.23;;;1.53;;
34471;SDS011;20710;49.976;19.836;2022-08-01T12:42:14;2.60;;;2.00;;
34471;SDS011;20710;49.976;19.836;2022-08-01T12:48:16;2.75;;;1.60;;
34471;SDS011;20710;49.976;19.836;2022-08-01T12:54:18;3.00;;;2.00;;
34471;SDS011;20710;49.976;19.836;2022-08-01T13:00:21;5.80;;;2.22;;
34471;SDS011;20710;49.976;19.836;2022-08-01T13:06:27;4.30;;;2.03;;
34471;SDS011;20710;49.976;19.836;2022-08-01T13:12:31;2.10;;;1.80;;
34471;SDS011;20710;49.976;19.836;2022-08-01T13:18:32;1.95;;;1.65;;
34471;SDS011;20710;49.976;19.836;2022-08-01T13:24:36;3.67;;;2.10;;
34471;SDS011;20710;49.976;19.836;2022-08-01T13:30:37;3.90;;;2.30;;
34471;SDS011;20710;49.976;19.836;2022-08-01T13:36:39;6.45;;;2.67;;
34471;SDS011;20710;49.976;19.836;2022-08-01T13:42:41;5.28;;;2.52;;
34471;SDS011;20710;49.976;19.836;2022-08-01T13:48:44;3.45;;;2.40;;
34471;SDS011;20710;49.976;19.836;2022-08-01T13:54:46;5.33;;;2.50;;
34471;SDS011;20710;49.976;19.836;2022-08-01T14:00:47;5.22;;;2.85;;
34471;SDS011;20710;49.976;19.836;2022-08-01T14:06:49;3.62;;;2.98;;
34471;SDS011;20710;49.976;19.836;2022-08-01T14:12:51;4.37;;;3.15;;
34471;SDS011;20710;49.976;19.836;2022-08-01T14:18:52;3.75;;;2.85;;
34471;SDS011;20710;49.976;19.836;2022-08-01T14:24:54;4.12;;;3.10;;
34471;SDS011;20710;49.976;19.836;2022-08-01T14:30:55;4.12;;;3.37;;
34471;SDS011;20710;49.976;19.836;2022-08-01T14:36:58;3.15;;;2.85;;
34471;SDS011;20710;49.976;19.836;2022-08-01T14:42:59;3.08;;;2.37;;
34471;SDS011;20710;49.976;19.836;2022-08-01T14:49:02;2.90;;;2.42;;
34471;SDS011;20710;49.976;19.836;2022-08-01T14:55:04;4.87;;;3.25;;
34471;SDS011;20710;49.976;19.836;2022-08-01T15:01:09;4.85;;;3.37;;
34471;SDS011;20710;49.976;19.836;2022-08-01T15:07:10;4.42;;;3.35;;
34471;SDS011;20710;49.976;19.836;2022-08-01T15:13:12;4.42;;;3.45;;
34471;SDS011;20710;49.976;19.836;2022-08-01T15:19:13;3.85;;;3.45;;
34471;SDS011;20710;49.976;19.836;2022-08-01T15:25:15;4.90;;;3.15;;
34471;SDS011;20710;49.976;19.836;2022-08-01T15:31:16;7.33;;;3.62;;
34471;SDS011;20710;49.976;19.836;2022-08-01T15:37:17;3.47;;;2.87;;
34471;SDS011;20710;49.976;19.836;2022-08-01T15:43:19;4.97;;;3.08;;
34471;SDS011;20710;49.976;19.836;2022-08-01T15:49:20;4.22;;;2.70;;
34471;SDS011;20710;49.976;19.836;2022-08-01T15:55:23;6.80;;;3.40;;
34471;SDS011;20710;49.976;19.836;2022-08-01T16:01:24;6.22;;;2.87;;
34471;SDS011;20710;49.976;19.836;2022-08-01T16:07:26;6.15;;;3.08;;
34471;SDS011;20710;49.976;19.836;2022-08-01T16:13:28;5.42;;;2.98;;
34471;SDS011;20710;49.976;19.836;2022-08-01T16:19:29;4.25;;;3.27;;
34471;SDS011;20710;49.976;19.836;2022-08-01T16:25:30;3.52;;;2.90;;
34471;SDS011;20710;49.976;19.836;2022-08-01T16:31:32;7.28;;;3.50;;
34471;SDS011;20710;49.976;19.836;2022-08-01T16:37:33;6.20;;;3.92;;
34471;SDS011;20710;49.976;19.836;2022-08-01T16:43:36;4.65;;;3.52;;
34471;SDS011;20710;49.976;19.836;2022-08-01T16:49:37;5.20;;;3.33;;
34471;SDS011;20710;49.976;19.836;2022-08-01T16:55:39;8.08;;;3.80;;
34471;SDS011;20710;49.976;19.836;2022-08-01T17:01:40;5.37;;;3.67;;
34471;SDS011;20710;49.976;19.836;2022-08-01T17:07:42;9.80;;;4.83;;
34471;SDS011;20710;49.976;19.836;2022-08-01T17:13:43;6.12;;;4.70;;
34471;SDS011;20710;49.976;19.836;2022-08-01T17:26:19;9.63;;;6.65;;
34471;SDS011;20710;49.976;19.836;2022-08-01T17:32:21;9.68;;;6.00;;
34471;SDS011;20710;49.976;19.836;2022-08-01T17:38:22;6.72;;;5.05;;
34471;SDS011;20710;49.976;19.836;2022-08-01T17:44:23;10.23;;;6.53;;
34471;SDS011;20710;49.976;19.836;2022-08-01T17:50:27;9.95;;;6.92;;
34471;SDS011;20710;49.976;19.836;2022-08-01T17:56:28;7.80;;;7.00;;
34471;SDS011;20710;49.976;19.836;2022-08-01T18:02:30;12.33;;;7.85;;
34471;SDS011;20710;49.976;19.836;2022-08-01T18:08:31;9.98;;;7.60;;
34471;SDS011;20710;49.976;19.836;2022-08-01T18:14:34;12.05;;;8.95;;
34471;SDS011;20710;49.976;19.836;2022-08-01T18:20:35;8.75;;;7.55;;
34471;SDS011;20710;49.976;19.836;2022-08-01T18:26:36;9.83;;;8.90;;
34471;SDS011;20710;49.976;19.836;2022-08-01T18:38:56;11.20;;;8.88;;
34471;SDS011;20710;49.976;19.836;2022-08-01T18:44:58;13.55;;;8.83;;
34471;SDS011;20710;49.976;19.836;2022-08-01T18:51:00;14.65;;;11.30;;
34471;SDS011;20710;49.976;19.836;2022-08-01T18:57:04;14.28;;;12.13;;
34471;SDS011;20710;49.976;19.836;2022-08-01T19:03:08;18.12;;;11.28;;
34471;SDS011;20710;49.976;19.836;2022-08-01T19:09:09;13.38;;;11.50;;
34471;SDS011;20710;49.976;19.836;2022-08-01T19:15:11;13.83;;;11.78;;
34471;SDS011;20710;49.976;19.836;2022-08-01T19:21:12;13.05;;;11.75;;
34471;SDS011;20710;49.976;19.836;2022-08-01T19:27:14;16.67;;;12.88;;
34471;SDS011;20710;49.976;19.836;2022-08-01T19:33:18;12.65;;;11.45;;
34471;SDS011;20710;49.976;19.836;2022-08-01T19:39:21;11.22;;;10.03;;
34471;SDS011;20710;49.976;19.836;2022-08-01T19:45:32;13.33;;;11.10;;
34471;SDS011;20710;49.976;19.836;2022-08-01T19:51:51;12.55;;;11.28;;
34471;SDS011;20710;49.976;19.836;2022-08-01T19:57:54;12.90;;;11.57;;
34471;SDS011;20710;49.976;19.836;2022-08-01T20:03:58;14.30;;;12.80;;
34471;SDS011;20710;49.976;19.836;2022-08-01T20:10:04;13.53;;;12.15;;
34471;SDS011;20710;49.976;19.836;2022-08-01T20:16:06;11.90;;;10.58;;
34471;SDS011;20710;49.976;19.836;2022-08-01T20:22:09;12.05;;;10.85;;
34471;SDS011;20710;49.976;19.836;2022-08-01T20:28:15;14.58;;;9.90;;
34471;SDS011;20710;49.976;19.836;2022-08-01T20:34:28;15.95;;;11.88;;
34471;SDS011;20710;49.976;19.836;2022-08-01T20:40:33;13.45;;;12.05;;
34471;SDS011;20710;49.976;19.836;2022-08-01T20:46:36;12.80;;;11.15;;
34471;SDS011;20710;49.976;19.836;2022-08-01T20:52:44;11.83;;;10.63;;
34471;SDS011;20710;49.976;19.836;2022-08-01T20:58:59;14.25;;;11.78;;
34471;SDS011;20710;49.976;19.836;2022-08-01T21:05:29;11.73;;;10.08;;
34471;SDS011;20710;49.976;19.836;2022-08-01T21:11:42;13.05;;;10.45;;
34471;SDS011;20710;49.976;19.836;2022-08-01T21:18:06;16.42;;;11.95;;
34471;SDS011;20710;49.976;19.836;2022-08-01T21:24:16;14.65;;;11.08;;
34471;SDS011;20710;49.976;19.836;2022-08-01T21:30:20;13.58;;;11.28;;
34471;SDS011;20710;49.976;19.836;2022-08-01T21:36:31;16.73;;;12.63;;
34471;SDS011;20710;49.976;19.836;2022-08-01T21:42:32;15.28;;;12.07;;
34471;SDS011;20710;49.976;19.836;2022-08-01T21:48:36;15.18;;;12.68;;
34471;SDS011;20710;49.976;19.836;2022-08-01T21:54:40;14.40;;;11.68;;
34471;SDS011;20710;49.976;19.836;2022-08-01T22:01:09;18.07;;;12.30;;
34471;SDS011;20710;49.976;19.836;2022-08-01T22:07:11;17.62;;;12.45;;
34471;SDS011;20710;49.976;19.836;2022-08-01T22:13:16;15.57;;;13.23;;
34471;SDS011;20710;49.976;19.836;2022-08-01T22:25:28;17.67;;;12.65;;
34471;SDS011;20710;49.976;19.836;2022-08-01T22:31:34;15.38;;;12.75;;
34471;SDS011;20710;49.976;19.836;2022-08-01T22:37:35;15.88;;;13.08;;
34471;SDS011;20710;49.976;19.836;2022-08-01T22:43:54;16.80;;;15.20;;
34471;SDS011;20710;49.976;19.836;2022-08-01T22:50:15;17.17;;;14.45;;
34471;SDS011;20710;49.976;19.836;2022-08-01T22:56:45;18.82;;;13.20;;
34471;SDS011;20710;49.976;19.836;2022-08-01T23:02:52;16.45;;;13.85;;
34471;SDS011;20710;49.976;19.836;2022-08-01T23:09:00;15.40;;;13.68;;
34471;SDS011;20710;49.976;19.836;2022-08-01T23:15:03;15.03;;;13.55;;
34471;SDS011;20710;49.976;19.836;2022-08-01T23:21:09;17.12;;;13.50;;
34471;SDS011;20710;49.976;19.836;2022-08-01T23:27:12;18.35;;;14.55;;
34471;SDS011;20710;49.976;19.836;2022-08-01T23:33:26;16.10;;;13.93;;
34471;SDS011;20710;49.976;19.836;2022-08-01T23:39:28;16.67;;;14.78;;
34471;SDS011;20710;49.976;19.836;2022-08-01T23:45:30;17.87;;;15.68;;
34471;SDS011;20710;49.976;19.836;2022-08-01T23:51:32;14.80;;;13.22;;
34471;SDS011;20710;49.976;19.836;2022-08-01T23:57:34;16.10;;;14.40;;
